PWSweather.com
Personal Weather Stations
Station Observations
DW1039
Liberty & Fairfield Townships, Hamilton, OH 45011

Liberty & Fairfield TownshipsHamilton, OH 45011

Lat: 39.3933, Lon: -84.477

Elevation: 780

Station Type: Davis Vantage Pro2 (Daytime Fan Aspirated)

http://www.lfweathercenter.com/

High Low Average
Temperature 43.5°F6.4°C 28.8°F-1.8°C 34.2°F1.2°C
Dew Point 25.5°F-3.6°C 17.2°F-8.2°C 21.5°F-5.8°C
Winds 25.0 mph 40.2 kmh Calm Calm 8.0 mph SW12.9 kmh SW
Wind Gusts 29.0 mph46.7 kmh 5.0 mph8.0 kmh 15.0 mph24.1 kmh
Humidity 72% 44% 60%
Pressure 30.30 in1026.1 mb 30.11 in1019.6 mb -
Precipitation 0.00 in0.0 mm - -
Hour Temp Dew Point Humidity Winds Wind Gusts Pressure Precip Precip Rate Daily Precip Total
12:00 AM 30.8°F-0.7°C 19.3°F-7.1°C 62% 6.0 mph SW9.7 kmh SW 7.0 mph11.3 kmh 30.29 in1025.7 mb 0.00 in0.0 mm 0.00 in/hr0.0 mm/hr 0.00 in0.0 mm
12:10 AM 30.8°F-0.7°C 19.7°F-6.8°C 63% 4.0 mph SW6.4 kmh SW 5.0 mph8.0 kmh 30.29 in1025.7 mb 0.00 in0.0 mm 0.00 in/hr0.0 mm/hr 0.00 in0.0 mm
12:20 AM 30.6°F-0.8°C 19.9°F-6.7°C 64% 3.0 mph WSW4.8 kmh WSW 6.0 mph9.7 kmh 30.30 in1026.1 mb 0.00 in0.0 mm 0.00 in/hr0.0 mm/hr 0.00 in0.0 mm
12:30 AM 30.5°F-0.8°C 20.2°F-6.6°C 65% 3.0 mph SW4.8 kmh SW 7.0 mph11.3 kmh 30.29 in1025.7 mb 0.00 in0.0 mm 0.00 in/hr0.0 mm/hr 0.00 in0.0 mm
12:40 AM 30.7°F-0.7°C 20.3°F-6.5°C 65% 4.0 mph SSW6.4 kmh SSW 7.0 mph11.3 kmh 30.29 in1025.7 mb 0.00 in0.0 mm 0.00 in/hr0.0 mm/hr 0.00 in0.0 mm
12:50 AM 30.8°F-0.7°C 20.8°F-6.2°C 66% 1.0 mph SW1.6 kmh SW 7.0 mph11.3 kmh 30.29 in1025.7 mb 0.00 in0.0 mm 0.00 in/hr0.0 mm/hr 0.00 in0.0 mm
01:00 AM 30.6°F-0.8°C 21.0°F-6.1°C 67% 6.0 mph SW9.7 kmh SW 6.0 mph9.7 kmh 30.29 in1025.7 mb 0.00 in0.0 mm 0.00 in/hr0.0 mm/hr 0.00 in0.0 mm
01:10 AM 30.8°F-0.7°C 20.8°F-6.2°C 66% 1.0 mph SW1.6 kmh SW 9.0 mph14.5 kmh 30.29 in1025.7 mb 0.00 in0.0 mm 0.00 in/hr0.0 mm/hr 0.00 in0.0 mm
01:20 AM 30.6°F-0.8°C 21.0°F-6.1°C 67% 3.0 mph SW4.8 kmh SW 9.0 mph14.5 kmh 30.29 in1025.7 mb 0.00 in0.0 mm 0.00 in/hr0.0 mm/hr 0.00 in0.0 mm
01:30 AM 30.5°F-0.8°C 21.2°F-6.0°C 68% 2.0 mph SW3.2 kmh SW 5.0 mph8.0 kmh 30.28 in1025.4 mb 0.00 in0.0 mm 0.00 in/hr0.0 mm/hr 0.00 in0.0 mm
01:40 AM 30.5°F-0.8°C 21.2°F-6.0°C 68% 5.0 mph SW8.0 kmh SW 9.0 mph14.5 kmh 30.29 in1025.7 mb 0.00 in0.0 mm 0.00 in/hr0.0 mm/hr 0.00 in0.0 mm
01:50 AM 30.6°F-0.8°C 21.3°F-5.9°C 68% 3.0 mph SW4.8 kmh SW 6.0 mph9.7 kmh 30.30 in1026.1 mb 0.00 in0.0 mm 0.00 in/hr0.0 mm/hr 0.00 in0.0 mm
02:00 AM 29.7°F-1.3°C 21.1°F-6.1°C 70% 2.0 mph WSW3.2 kmh WSW 5.0 mph8.0 kmh 30.30 in1026.1 mb 0.00 in0.0 mm 0.00 in/hr0.0 mm/hr 0.00 in0.0 mm
02:10 AM 29.9°F-1.2°C 21.3°F-5.9°C 70% 3.0 mph WSW4.8 kmh WSW 10.0 mph16.1 kmh 30.30 in1026.1 mb 0.00 in0.0 mm 0.00 in/hr0.0 mm/hr 0.00 in0.0 mm
02:20 AM 29.9°F-1.2°C 21.3°F-5.9°C 70% 2.0 mph SW3.2 kmh SW 7.0 mph11.3 kmh 30.30 in1026.1 mb 0.00 in0.0 mm 0.00 in/hr0.0 mm/hr 0.00 in0.0 mm
02:30 AM 30.0°F-1.1°C 21.8°F-5.7°C 71% 5.0 mph SW8.0 kmh SW 9.0 mph14.5 kmh 30.29 in1025.7 mb 0.00 in0.0 mm 0.00 in/hr0.0 mm/hr 0.00 in0.0 mm
02:40 AM 29.9°F-1.2°C 21.7°F-5.7°C 71% Calm Calm 5.0 mph8.0 kmh 30.29 in1025.7 mb 0.00 in0.0 mm 0.00 in/hr0.0 mm/hr 0.00 in0.0 mm
02:50 AM 29.5°F-1.4°C 21.3°F-5.9°C 71% 2.0 mph SSW3.2 kmh SSW 6.0 mph9.7 kmh 30.28 in1025.4 mb 0.00 in0.0 mm 0.00 in/hr0.0 mm/hr 0.00 in0.0 mm
03:00 AM 29.2°F-1.6°C 21.0°F-6.1°C 71% 3.0 mph S4.8 kmh S 6.0 mph9.7 kmh 30.28 in1025.4 mb 0.00 in0.0 mm 0.00 in/hr0.0 mm/hr 0.00 in0.0 mm
03:10 AM 28.8°F-1.8°C 20.9°F-6.2°C 72% 4.0 mph SSW6.4 kmh SSW 7.0 mph11.3 kmh 30.27 in1025.1 mb 0.00 in0.0 mm 0.00 in/hr0.0 mm/hr 0.00 in0.0 mm
03:20 AM 29.1°F-1.6°C 21.2°F-6.0°C 72% 3.0 mph SW4.8 kmh SW 9.0 mph14.5 kmh 30.27 in1025.1 mb 0.00 in0.0 mm 0.00 in/hr0.0 mm/hr 0.00 in0.0 mm
03:30 AM 29.4°F-1.4°C 21.2°F-6.0°C 71% 6.0 mph SSW9.7 kmh SSW 10.0 mph16.1 kmh 30.27 in1025.1 mb 0.00 in0.0 mm 0.00 in/hr0.0 mm/hr 0.00 in0.0 mm
03:40 AM 29.6°F-1.3°C 21.0°F-6.1°C 70% 6.0 mph S9.7 kmh S 7.0 mph11.3 kmh 30.27 in1025.1 mb 0.00 in0.0 mm 0.00 in/hr0.0 mm/hr 0.00 in0.0 mm
03:50 AM 29.6°F-1.3°C 21.0°F-6.1°C 70% 2.0 mph SSW3.2 kmh SSW 11.0 mph17.7 kmh 30.27 in1025.1 mb 0.00 in0.0 mm 0.00 in/hr0.0 mm/hr 0.00 in0.0 mm
04:00 AM 29.7°F-1.3°C 20.8°F-6.2°C 69% 4.0 mph SW6.4 kmh SW 11.0 mph17.7 kmh 30.26 in1024.7 mb 0.00 in0.0 mm 0.00 in/hr0.0 mm/hr 0.00 in0.0 mm
04:10 AM 29.8°F-1.2°C 20.5°F-6.4°C 68% 5.0 mph SW8.0 kmh SW 8.0 mph12.9 kmh 30.26 in1024.7 mb 0.00 in0.0 mm 0.00 in/hr0.0 mm/hr 0.00 in0.0 mm
04:20 AM 29.7°F-1.3°C 20.5°F-6.4°C 68% 4.0 mph SW6.4 kmh SW 9.0 mph14.5 kmh 30.26 in1024.7 mb 0.00 in0.0 mm 0.00 in/hr0.0 mm/hr 0.00 in0.0 mm
04:30 AM 30.0°F-1.1°C 20.4°F-6.4°C 67% 3.0 mph S4.8 kmh S 6.0 mph9.7 kmh 30.26 in1024.7 mb 0.00 in0.0 mm 0.00 in/hr0.0 mm/hr 0.00 in0.0 mm
04:40 AM 30.1°F-1.1°C 20.1°F-6.6°C 66% 2.0 mph SW3.2 kmh SW 7.0 mph11.3 kmh 30.26 in1024.7 mb 0.00 in0.0 mm 0.00 in/hr0.0 mm/hr 0.00 in0.0 mm
04:50 AM 30.0°F-1.1°C 20.0°F-6.7°C 66% 4.0 mph SW6.4 kmh SW 6.0 mph9.7 kmh 30.26 in1024.7 mb 0.00 in0.0 mm 0.00 in/hr0.0 mm/hr 0.00 in0.0 mm
05:01 AM 30.4°F-0.9°C 20.1°F-6.6°C 65% 1.0 mph SSW1.6 kmh SSW 7.0 mph11.3 kmh 30.26 in1024.7 mb 0.00 in0.0 mm 0.00 in/hr0.0 mm/hr 0.00 in0.0 mm
05:10 AM 30.1°F-1.1°C 19.8°F-6.8°C 65% 4.0 mph S6.4 kmh S 8.0 mph12.9 kmh 30.25 in1024.4 mb 0.00 in0.0 mm 0.00 in/hr0.0 mm/hr 0.00 in0.0 mm
05:20 AM 30.5°F-0.8°C 19.8°F-6.8°C 64% 9.0 mph SSW14.5 kmh SSW 14.0 mph22.5 kmh 30.25 in1024.4 mb 0.00 in0.0 mm 0.00 in/hr0.0 mm/hr 0.00 in0.0 mm
05:30 AM 30.9°F-0.6°C 19.8°F-6.8°C 63% 7.0 mph S11.3 kmh S 14.0 mph22.5 kmh 30.25 in1024.4 mb 0.00 in0.0 mm 0.00 in/hr0.0 mm/hr 0.00 in0.0 mm
05:40 AM 30.7°F-0.7°C 20.0°F-6.7°C 64% 4.0 mph SSW6.4 kmh SSW 11.0 mph17.7 kmh 30.24 in1024.0 mb 0.00 in0.0 mm 0.00 in/hr0.0 mm/hr 0.00 in0.0 mm
05:50 AM 31.0°F-0.6°C 19.9°F-6.7°C 63% 6.0 mph S9.7 kmh S 13.0 mph20.9 kmh 30.24 in1024.0 mb 0.00 in0.0 mm 0.00 in/hr0.0 mm/hr 0.00 in0.0 mm
06:00 AM 31.0°F-0.6°C 19.9°F-6.7°C 63% 4.0 mph S6.4 kmh S 12.0 mph19.3 kmh 30.24 in1024.0 mb 0.00 in0.0 mm 0.00 in/hr0.0 mm/hr 0.00 in0.0 mm
06:10 AM 31.2°F-0.4°C 20.1°F-6.6°C 63% 6.0 mph SW9.7 kmh SW 11.0 mph17.7 kmh 30.23 in1023.7 mb 0.00 in0.0 mm 0.00 in/hr0.0 mm/hr 0.00 in0.0 mm
06:20 AM 31.2°F-0.4°C 20.1°F-6.6°C 63% 2.0 mph SW3.2 kmh SW 13.0 mph20.9 kmh 30.23 in1023.7 mb 0.00 in0.0 mm 0.00 in/hr0.0 mm/hr 0.00 in0.0 mm
06:30 AM 31.6°F-0.2°C 20.5°F-6.4°C 63% 4.0 mph SW6.4 kmh SW 13.0 mph20.9 kmh 30.23 in1023.7 mb 0.00 in0.0 mm 0.00 in/hr0.0 mm/hr 0.00 in0.0 mm
06:40 AM 32.0°F0.0°C 20.5°F-6.4°C 62% 14.0 mph SSW22.5 kmh SSW 15.0 mph24.1 kmh 30.22 in1023.4 mb 0.00 in0.0 mm 0.00 in/hr0.0 mm/hr 0.00 in0.0 mm
06:50 AM 32.0°F0.0°C 20.9°F-6.2°C 63% 9.0 mph SW14.5 kmh SW 14.0 mph22.5 kmh 30.22 in1023.4 mb 0.00 in0.0 mm 0.00 in/hr0.0 mm/hr 0.00 in0.0 mm
07:01 AM 32.0°F0.0°C 20.9°F-6.2°C 63% 6.0 mph SSW9.7 kmh SSW 16.0 mph25.7 kmh 30.22 in1023.4 mb 0.00 in0.0 mm 0.00 in/hr0.0 mm/hr 0.00 in0.0 mm
07:10 AM 32.1°F0.1°C 20.9°F-6.2°C 63% 5.0 mph SW8.0 kmh SW 18.0 mph29.0 kmh 30.22 in1023.4 mb 0.00 in0.0 mm 0.00 in/hr0.0 mm/hr 0.00 in0.0 mm
07:20 AM 32.1°F0.1°C 20.9°F-6.2°C 63% 3.0 mph SW4.8 kmh SW 15.0 mph24.1 kmh 30.21 in1023.0 mb 0.00 in0.0 mm 0.00 in/hr0.0 mm/hr 0.00 in0.0 mm
07:30 AM 32.0°F0.0°C 20.9°F-6.2°C 63% 10.0 mph SW16.1 kmh SW 16.0 mph25.7 kmh 30.21 in1023.0 mb 0.00 in0.0 mm 0.00 in/hr0.0 mm/hr 0.00 in0.0 mm
07:40 AM 31.9°F-0.1°C 20.8°F-6.2°C 63% 4.0 mph SSW6.4 kmh SSW 14.0 mph22.5 kmh 30.20 in1022.7 mb 0.00 in0.0 mm 0.00 in/hr0.0 mm/hr 0.00 in0.0 mm
07:50 AM 31.8°F-0.1°C 21.0°F-6.1°C 64% 2.0 mph SW3.2 kmh SW 15.0 mph24.1 kmh 30.21 in1023.0 mb 0.00 in0.0 mm 0.00 in/hr0.0 mm/hr 0.00 in0.0 mm
08:00 AM 31.7°F-0.2°C 20.9°F-6.2°C 64% 6.0 mph SW9.7 kmh SW 14.0 mph22.5 kmh 30.21 in1023.0 mb 0.00 in0.0 mm 0.00 in/hr0.0 mm/hr 0.00 in0.0 mm
08:10 AM 31.6°F-0.2°C 21.2°F-6.0°C 65% 3.0 mph SW4.8 kmh SW 11.0 mph17.7 kmh 30.21 in1023.0 mb 0.00 in0.0 mm 0.00 in/hr0.0 mm/hr 0.00 in0.0 mm
08:20 AM 31.2°F-0.4°C 20.8°F-6.2°C 65% 4.0 mph SSW6.4 kmh SSW 10.0 mph16.1 kmh 30.21 in1023.0 mb 0.00 in0.0 mm 0.00 in/hr0.0 mm/hr 0.00 in0.0 mm
08:30 AM 31.3°F-0.4°C 21.3°F-5.9°C 66% 5.0 mph SSW8.0 kmh SSW 10.0 mph16.1 kmh 30.21 in1023.0 mb 0.00 in0.0 mm 0.00 in/hr0.0 mm/hr 0.00 in0.0 mm
08:40 AM 31.1°F-0.5°C 21.1°F-6.1°C 66% 1.0 mph SW1.6 kmh SW 12.0 mph19.3 kmh 30.21 in1023.0 mb 0.00 in0.0 mm 0.00 in/hr0.0 mm/hr 0.00 in0.0 mm
08:50 AM 30.8°F-0.7°C 21.2°F-6.0°C 67% 4.0 mph SSW6.4 kmh SSW 10.0 mph16.1 kmh 30.21 in1023.0 mb 0.00 in0.0 mm 0.00 in/hr0.0 mm/hr 0.00 in0.0 mm
09:00 AM 31.2°F-0.4°C 21.2°F-6.0°C 66% 10.0 mph SW16.1 kmh SW 12.0 mph19.3 kmh 30.21 in1023.0 mb 0.00 in0.0 mm 0.00 in/hr0.0 mm/hr 0.00 in0.0 mm
09:10 AM 31.7°F-0.2°C 21.7°F-5.7°C 66% 9.0 mph SW14.5 kmh SW 13.0 mph20.9 kmh 30.21 in1023.0 mb 0.00 in0.0 mm 0.00 in/hr0.0 mm/hr 0.00 in0.0 mm
09:20 AM 32.1°F0.1°C 21.7°F-5.7°C 65% 5.0 mph SSW8.0 kmh SSW 14.0 mph22.5 kmh 30.21 in1023.0 mb 0.00 in0.0 mm 0.00 in/hr0.0 mm/hr 0.00 in0.0 mm
09:30 AM 32.3°F0.2°C 21.5°F-5.8°C 64% 9.0 mph S14.5 kmh S 16.0 mph25.7 kmh 30.21 in1023.0 mb 0.00 in0.0 mm 0.00 in/hr0.0 mm/hr 0.00 in0.0 mm
09:40 AM 32.5°F0.3°C 22.1°F-5.5°C 65% 10.0 mph S16.1 kmh S 11.0 mph17.7 kmh 30.21 in1023.0 mb 0.00 in0.0 mm 0.00 in/hr0.0 mm/hr 0.00 in0.0 mm
09:50 AM 33.1°F0.6°C 21.9°F-5.6°C 63% 9.0 mph SW14.5 kmh SW 16.0 mph25.7 kmh 30.21 in1023.0 mb 0.00 in0.0 mm 0.00 in/hr0.0 mm/hr 0.00 in0.0 mm
10:00 AM 33.0°F0.6°C 22.2°F-5.4°C 64% 15.0 mph WSW24.1 kmh WSW 18.0 mph29.0 kmh 30.21 in1023.0 mb 0.00 in0.0 mm 0.00 in/hr0.0 mm/hr 0.00 in0.0 mm
10:10 AM 33.6°F0.9°C 22.0°F-5.6°C 62% 7.0 mph SSW11.3 kmh SSW 18.0 mph29.0 kmh 30.21 in1023.0 mb 0.00 in0.0 mm 0.00 in/hr0.0 mm/hr 0.00 in0.0 mm
10:20 AM 33.9°F1.1°C 22.3°F-5.4°C 62% 13.0 mph S20.9 kmh S 18.0 mph29.0 kmh 30.20 in1022.7 mb 0.00 in0.0 mm 0.00 in/hr0.0 mm/hr 0.00 in0.0 mm
10:30 AM 34.1°F1.2°C 22.5°F-5.3°C 62% 11.0 mph SW17.7 kmh SW 20.0 mph32.2 kmh 30.20 in1022.7 mb 0.00 in0.0 mm 0.00 in/hr0.0 mm/hr 0.00 in0.0 mm
11:20 AM 36.0°F2.2°C 22.7°F-5.2°C 58% 11.0 mph SW17.7 kmh SW 22.0 mph35.4 kmh 30.18 in1022.0 mb 0.00 in0.0 mm 0.00 in/hr0.0 mm/hr 0.00 in0.0 mm
11:30 AM 36.1°F2.3°C 22.8°F-5.1°C 58% 13.0 mph SW20.9 kmh SW 22.0 mph35.4 kmh 30.18 in1022.0 mb 0.00 in0.0 mm 0.00 in/hr0.0 mm/hr 0.00 in0.0 mm
12:00 PM 37.3°F2.9°C 23.5°F-4.7°C 57% 13.0 mph S20.9 kmh S 20.0 mph32.2 kmh 30.17 in1021.7 mb 0.00 in0.0 mm 0.00 in/hr0.0 mm/hr 0.00 in0.0 mm
12:10 PM 37.5°F3.1°C 23.3°F-4.8°C 56% 9.0 mph SW14.5 kmh SW 21.0 mph33.8 kmh 30.17 in1021.7 mb 0.00 in0.0 mm 0.00 in/hr0.0 mm/hr 0.00 in0.0 mm
12:20 PM 38.5°F3.6°C 24.2°F-4.3°C 56% 9.0 mph SSW14.5 kmh SSW 17.0 mph27.4 kmh 30.17 in1021.7 mb 0.00 in0.0 mm 0.00 in/hr0.0 mm/hr 0.00 in0.0 mm
12:30 PM 38.6°F3.7°C 23.8°F-4.6°C 55% 10.0 mph SW16.1 kmh SW 24.0 mph38.6 kmh 30.16 in1021.3 mb 0.00 in0.0 mm 0.00 in/hr0.0 mm/hr 0.00 in0.0 mm
12:40 PM 38.9°F3.8°C 23.7°F-4.6°C 54% 14.0 mph S22.5 kmh S 25.0 mph40.2 kmh 30.16 in1021.3 mb 0.00 in0.0 mm 0.00 in/hr0.0 mm/hr 0.00 in0.0 mm
12:50 PM 39.7°F4.3°C 24.0°F-4.4°C 53% 8.0 mph SW12.9 kmh SW 17.0 mph27.4 kmh 30.15 in1021.0 mb 0.00 in0.0 mm 0.00 in/hr0.0 mm/hr 0.00 in0.0 mm
01:01 PM 39.8°F4.3°C 23.6°F-4.7°C 52% 16.0 mph SSW25.7 kmh SSW 26.0 mph41.8 kmh 30.14 in1020.7 mb 0.00 in0.0 mm 0.00 in/hr0.0 mm/hr 0.00 in0.0 mm
01:40 PM 42.7°F5.9°C 24.4°F-4.2°C 48% 9.0 mph SSW14.5 kmh SSW 20.0 mph32.2 kmh 30.11 in1019.6 mb 0.00 in0.0 mm 0.00 in/hr0.0 mm/hr 0.00 in0.0 mm
01:50 PM 43.3°F6.3°C 23.9°F-4.5°C 46% 16.0 mph WSW25.7 kmh WSW 26.0 mph41.8 kmh 30.12 in1020.0 mb 0.00 in0.0 mm 0.00 in/hr0.0 mm/hr 0.00 in0.0 mm
02:00 PM 43.5°F6.4°C 23.6°F-4.7°C 45% 11.0 mph SW17.7 kmh SW 20.0 mph32.2 kmh 30.12 in1020.0 mb 0.00 in0.0 mm 0.00 in/hr0.0 mm/hr 0.00 in0.0 mm
02:20 PM 43.4°F6.3°C 23.0°F-5.0°C 44% 9.0 mph SW14.5 kmh SW 22.0 mph35.4 kmh 30.11 in1019.6 mb 0.00 in0.0 mm 0.00 in/hr0.0 mm/hr 0.00 in0.0 mm
02:30 PM 43.5°F6.4°C 23.6°F-4.7°C 45% 11.0 mph WSW17.7 kmh WSW 26.0 mph41.8 kmh 30.11 in1019.6 mb 0.00 in0.0 mm 0.00 in/hr0.0 mm/hr 0.00 in0.0 mm
02:40 PM 43.4°F6.3°C 24.0°F-4.4°C 46% 17.0 mph W27.4 kmh W 23.0 mph37.0 kmh 30.11 in1019.6 mb 0.00 in0.0 mm 0.00 in/hr0.0 mm/hr 0.00 in0.0 mm
02:50 PM 42.9°F6.1°C 23.6°F-4.7°C 46% 12.0 mph WSW19.3 kmh WSW 24.0 mph38.6 kmh 30.11 in1019.6 mb 0.00 in0.0 mm 0.00 in/hr0.0 mm/hr 0.00 in0.0 mm
03:01 PM 43.0°F6.1°C 24.2°F-4.3°C 47% 10.0 mph WSW16.1 kmh WSW 21.0 mph33.8 kmh 30.11 in1019.6 mb 0.00 in0.0 mm 0.00 in/hr0.0 mm/hr 0.00 in0.0 mm
03:10 PM 42.6°F5.9°C 23.8°F-4.6°C 47% 12.0 mph W19.3 kmh W 27.0 mph43.5 kmh 30.11 in1019.6 mb 0.00 in0.0 mm 0.00 in/hr0.0 mm/hr 0.00 in0.0 mm
03:20 PM 42.2°F5.7°C 24.4°F-4.2°C 49% 25.0 mph WSW40.2 kmh WSW 25.0 mph40.2 kmh 30.11 in1019.6 mb 0.00 in0.0 mm 0.00 in/hr0.0 mm/hr 0.00 in0.0 mm
03:30 PM 41.5°F5.3°C 24.3°F-4.3°C 50% 12.0 mph WSW19.3 kmh WSW 29.0 mph46.7 kmh 30.11 in1019.6 mb 0.00 in0.0 mm 0.00 in/hr0.0 mm/hr 0.00 in0.0 mm
03:40 PM 42.8°F6.0°C 25.5°F-3.6°C 50% 20.0 mph W32.2 kmh W 24.0 mph38.6 kmh 30.11 in1019.6 mb 0.00 in0.0 mm 0.00 in/hr0.0 mm/hr 0.00 in0.0 mm
04:00 PM 42.0°F5.6°C 25.2°F-3.8°C 51% 6.0 mph WNW9.7 kmh WNW 25.0 mph40.2 kmh 30.12 in1020.0 mb 0.00 in0.0 mm 0.00 in/hr0.0 mm/hr 0.00 in0.0 mm
04:10 PM 40.9°F4.9°C 24.7°F-4.1°C 52% 16.0 mph W25.7 kmh W 25.0 mph40.2 kmh 30.13 in1020.3 mb 0.00 in0.0 mm 0.00 in/hr0.0 mm/hr 0.00 in0.0 mm
04:20 PM 40.5°F4.7°C 24.3°F-4.3°C 52% 10.0 mph WNW16.1 kmh WNW 21.0 mph33.8 kmh 30.14 in1020.7 mb 0.00 in0.0 mm 0.00 in/hr0.0 mm/hr 0.00 in0.0 mm
04:40 PM 39.7°F4.3°C 24.0°F-4.4°C 53% 9.0 mph NW14.5 kmh NW 20.0 mph32.2 kmh 30.15 in1021.0 mb 0.00 in0.0 mm 0.00 in/hr0.0 mm/hr 0.00 in0.0 mm
05:01 PM 39.2°F4.0°C 21.7°F-5.7°C 49% 22.0 mph W35.4 kmh W 26.0 mph41.8 kmh 30.18 in1022.0 mb 0.00 in0.0 mm 0.00 in/hr0.0 mm/hr 0.00 in0.0 mm
05:10 PM 38.6°F3.7°C 20.6°F-6.3°C 48% 12.0 mph NNW19.3 kmh NNW 27.0 mph43.5 kmh 30.18 in1022.0 mb 0.00 in0.0 mm 0.00 in/hr0.0 mm/hr 0.00 in0.0 mm
05:20 PM 37.9°F3.3°C 21.4°F-5.9°C 51% 10.0 mph W16.1 kmh W 23.0 mph37.0 kmh 30.19 in1022.4 mb 0.00 in0.0 mm 0.00 in/hr0.0 mm/hr 0.00 in0.0 mm
05:30 PM 37.9°F3.3°C 20.5°F-6.4°C 49% 16.0 mph W25.7 kmh W 20.0 mph32.2 kmh 30.20 in1022.7 mb 0.00 in0.0 mm 0.00 in/hr0.0 mm/hr 0.00 in0.0 mm
05:51 PM 37.3°F2.9°C 18.4°F-7.6°C 46% 9.0 mph NW14.5 kmh NW 17.0 mph27.4 kmh 30.22 in1023.4 mb 0.00 in0.0 mm 0.00 in/hr0.0 mm/hr 0.00 in0.0 mm
06:01 PM 36.6°F2.6°C 18.8°F-7.3°C 48% 11.0 mph NW17.7 kmh NW 23.0 mph37.0 kmh 30.22 in1023.4 mb 0.00 in0.0 mm 0.00 in/hr0.0 mm/hr 0.00 in0.0 mm
06:20 PM 35.8°F2.1°C 18.5°F-7.5°C 49% 4.0 mph WNW6.4 kmh WNW 20.0 mph32.2 kmh 30.24 in1024.0 mb 0.00 in0.0 mm 0.00 in/hr0.0 mm/hr 0.00 in0.0 mm
06:30 PM 35.5°F1.9°C 17.3°F-8.2°C 47% 6.0 mph WNW9.7 kmh WNW 18.0 mph29.0 kmh 30.24 in1024.0 mb 0.00 in0.0 mm 0.00 in/hr0.0 mm/hr 0.00 in0.0 mm
06:40 PM 34.9°F1.6°C 17.7°F-7.9°C 49% 11.0 mph WNW17.7 kmh WNW 13.0 mph20.9 kmh 30.25 in1024.4 mb 0.00 in0.0 mm 0.00 in/hr0.0 mm/hr 0.00 in0.0 mm
06:50 PM 34.4°F1.3°C 17.2°F-8.2°C 49% 6.0 mph WSW9.7 kmh WSW 15.0 mph24.1 kmh 30.25 in1024.4 mb 0.00 in0.0 mm 0.00 in/hr0.0 mm/hr 0.00 in0.0 mm
07:00 PM 34.3°F1.3°C 17.6°F-8.0°C 50% 2.0 mph WNW3.2 kmh WNW 18.0 mph29.0 kmh 30.26 in1024.7 mb 0.00 in0.0 mm 0.00 in/hr0.0 mm/hr 0.00 in0.0 mm
07:20 PM 33.4°F0.8°C 19.8°F-6.8°C 57% 8.0 mph W12.9 kmh W 14.0 mph22.5 kmh 30.28 in1025.4 mb 0.00 in0.0 mm 0.00 in/hr0.0 mm/hr 0.00 in0.0 mm
07:30 PM 32.7°F0.4°C 20.4°F-6.4°C 60% 7.0 mph W11.3 kmh W 12.0 mph19.3 kmh 30.28 in1025.4 mb 0.00 in0.0 mm 0.00 in/hr0.0 mm/hr 0.00 in0.0 mm
07:40 PM 32.5°F0.3°C 20.2°F-6.6°C 60% 4.0 mph W6.4 kmh W 14.0 mph22.5 kmh 30.29 in1025.7 mb 0.00 in0.0 mm 0.00 in/hr0.0 mm/hr 0.00 in0.0 mm
07:50 PM 32.0°F0.0°C 20.5°F-6.4°C 62% 1.0 mph WSW1.6 kmh WSW 9.0 mph14.5 kmh 30.29 in1025.7 mb 0.00 in0.0 mm 0.00 in/hr0.0 mm/hr 0.00 in0.0 mm
08:10 PM 31.0°F-0.6°C 20.6°F-6.3°C 65% 1.0 mph WNW1.6 kmh WNW 11.0 mph17.7 kmh 30.30 in1026.1 mb 0.00 in0.0 mm 0.00 in/hr0.0 mm/hr 0.00 in0.0 mm
08:20 PM 31.0°F-0.6°C 21.0°F-6.1°C 66% 1.0 mph W1.6 kmh W 8.0 mph12.9 kmh 30.30 in1026.1 mb 0.00 in0.0 mm 0.00 in/hr0.0 mm/hr 0.00 in0.0 mm
08:30 PM 31.0°F-0.6°C 21.0°F-6.1°C 66% 2.0 mph NW3.2 kmh NW 10.0 mph16.1 kmh 30.31 in1026.4 mb 0.00 in0.0 mm 0.00 in/hr0.0 mm/hr 0.00 in0.0 mm
08:40 PM 31.0°F-0.6°C 21.0°F-6.1°C 66% 3.0 mph W4.8 kmh W 9.0 mph14.5 kmh 30.31 in1026.4 mb 0.00 in0.0 mm 0.00 in/hr0.0 mm/hr 0.00 in0.0 mm
08:50 PM 30.3°F-0.9°C 21.0°F-6.1°C 68% Calm Calm 6.0 mph9.7 kmh 30.31 in1026.4 mb 0.00 in0.0 mm 0.00 in/hr0.0 mm/hr 0.00 in0.0 mm
09:01 PM 30.0°F-1.1°C 21.1°F-6.1°C 69% 3.0 mph W4.8 kmh W 4.0 mph6.4 kmh 30.32 in1026.8 mb 0.00 in0.0 mm 0.00 in/hr0.0 mm/hr 0.00 in0.0 mm
09:10 PM 29.6°F-1.3°C 21.0°F-6.1°C 70% 1.0 mph W1.6 kmh W 5.0 mph8.0 kmh 30.32 in1026.8 mb 0.00 in0.0 mm 0.00 in/hr0.0 mm/hr 0.00 in0.0 mm
09:20 PM 29.2°F-1.6°C 20.7°F-6.3°C 70% 2.0 mph WSW3.2 kmh WSW 5.0 mph8.0 kmh 30.32 in1026.8 mb 0.00 in0.0 mm 0.00 in/hr0.0 mm/hr 0.00 in0.0 mm
09:30 PM 29.2°F-1.6°C 21.0°F-6.1°C 71% Calm Calm 2.0 mph3.2 kmh 30.32 in1026.8 mb 0.00 in0.0 mm 0.00 in/hr0.0 mm/hr 0.00 in0.0 mm
09:40 PM 28.6°F-1.9°C 20.4°F-6.4°C 71% 1.0 mph WSW1.6 kmh WSW 3.0 mph4.8 kmh 30.33 in1027.1 mb 0.00 in0.0 mm 0.00 in/hr0.0 mm/hr 0.00 in0.0 mm
09:50 PM 28.5°F-1.9°C 20.6°F-6.3°C 72% Calm Calm 4.0 mph6.4 kmh 30.33 in1027.1 mb 0.00 in0.0 mm 0.00 in/hr0.0 mm/hr 0.00 in0.0 mm
10:00 PM 28.4°F-2.0°C 20.9°F-6.2°C 73% Calm Calm 2.0 mph3.2 kmh 30.33 in1027.1 mb 0.00 in0.0 mm 0.00 in/hr0.0 mm/hr 0.00 in0.0 mm
10:10 PM 28.2°F-2.1°C 20.7°F-6.3°C 73% 1.0 mph WSW1.6 kmh WSW 2.0 mph3.2 kmh 30.33 in1027.1 mb 0.00 in0.0 mm 0.00 in/hr0.0 mm/hr 0.00 in0.0 mm
10:20 PM 28.3°F-2.1°C 20.8°F-6.2°C 73% Calm Calm 2.0 mph3.2 kmh 30.33 in1027.1 mb 0.00 in0.0 mm 0.00 in/hr0.0 mm/hr 0.00 in0.0 mm
10:30 PM 28.0°F-2.2°C 20.5°F-6.4°C 73% Calm Calm 1.0 mph1.6 kmh 30.33 in1027.1 mb 0.00 in0.0 mm 0.00 in/hr0.0 mm/hr 0.00 in0.0 mm
10:40 PM 27.6°F-2.4°C 20.7°F-6.3°C 75% Calm Calm 1.0 mph1.6 kmh 30.33 in1027.1 mb 0.00 in0.0 mm 0.00 in/hr0.0 mm/hr 0.00 in0.0 mm
10:50 PM 27.9°F-2.3°C 21.0°F-6.1°C 75% Calm Calm 2.0 mph3.2 kmh 30.33 in1027.1 mb 0.00 in0.0 mm 0.00 in/hr0.0 mm/hr 0.00 in0.0 mm
11:01 PM 27.6°F-2.4°C 20.4°F-6.4°C 74% Calm Calm 2.0 mph3.2 kmh 30.33 in1027.1 mb 0.00 in0.0 mm 0.00 in/hr0.0 mm/hr 0.00 in0.0 mm
11:30 PM 26.6°F-3.0°C 20.1°F-6.6°C 76% Calm Calm 2.0 mph3.2 kmh 30.33 in1027.1 mb 0.00 in0.0 mm 0.00 in/hr0.0 mm/hr 0.00 in0.0 mm
11:50 PM 27.0°F-2.8°C 20.8°F-6.2°C 77% Calm Calm -- 30.34 in1027.4 mb 0.00 in0.0 mm 0.00 in/hr0.0 mm/hr 0.00 in0.0 mm